createdAt,value
2019-01-26T00:01:46.588Z,101587.17
2019-01-26T00:04:18.362Z,101582.55
2019-01-26T00:06:47.374Z,101582.55
2019-01-26T00:09:17.927Z,101580.88
2019-01-26T00:11:50.250Z,101581.14
2019-01-26T00:14:22.422Z,101578.11
2019-01-26T00:16:52.538Z,101561.73
2019-01-26T00:19:31.071Z,101567.38
2019-01-26T00:22:05.129Z,101566.29
2019-01-26T00:24:35.269Z,101562.52
2019-01-26T00:27:09.311Z,101557.66
2019-01-26T00:29:45.271Z,101557.94
2019-01-26T00:32:15.254Z,101559.87
2019-01-26T00:34:48.156Z,101553.66
2019-01-26T00:37:17.520Z,101551.26
2019-01-26T00:39:47.927Z,101544.73
2019-01-26T00:42:18.351Z,101534.70
2019-01-26T00:44:53.955Z,101534.70
2019-01-26T00:47:23.297Z,101533.55
2019-01-26T00:50:02.291Z,101533.79
2019-01-26T00:52:32.662Z,101530.70
2019-01-26T00:55:06.912Z,101532.84
2019-01-26T00:57:42.364Z,101530.95
2019-01-26T01:00:14.802Z,101527.72
2019-01-26T01:02:44.816Z,101529.62
2019-01-26T01:05:15.406Z,101516.84
2019-01-26T01:07:44.998Z,101502.64
2019-01-26T01:10:18.965Z,101493.59
2019-01-26T01:12:49.293Z,101498.44
2019-01-26T01:15:27.991Z,101497.55
2019-01-26T01:18:01.839Z,101499.48
2019-01-26T01:20:37.401Z,101498.45
2019-01-26T01:23:08.756Z,101485.45
2019-01-26T01:25:38.932Z,101488.95
2019-01-26T01:28:15.258Z,101486.23
2019-01-26T01:30:45.329Z,101484.39
2019-01-26T01:33:16.605Z,101480.31
2019-01-26T01:35:49.251Z,101479.77
2019-01-26T01:38:20.882Z,101480.31
2019-01-26T01:40:52.293Z,101478.39
2019-01-26T01:43:21.823Z,101479.74
2019-01-26T01:45:55.095Z,101472.38
2019-01-26T01:48:24.677Z,101459.85
2019-01-26T01:50:55.066Z,101463.97
2019-01-26T01:53:26.245Z,101459.64
2019-01-26T01:55:57.620Z,101449.09
2019-01-26T01:58:29.893Z,101443.67
2019-01-26T02:00:59.356Z,101442.35
2019-01-26T02:03:29.317Z,101435.58
2019-01-26T02:05:59.635Z,101437.55
2019-01-26T02:08:30.957Z,101434.32
2019-01-26T02:11:02.023Z,101431.91
2019-01-26T02:13:38.704Z,101435.47
2019-01-26T02:16:08.387Z,101431.39
2019-01-26T02:18:41.794Z,101436.30
2019-01-26T02:21:13.622Z,101426.22
2019-01-26T02:23:48.506Z,101419.95
2019-01-26T02:26:22.116Z,101423.76
2019-01-26T02:28:54.955Z,101424.81
2019-01-26T02:31:25.878Z,101418.33
2019-01-26T02:33:59.276Z,101412.89
2019-01-26T02:36:30.491Z,101415.30
2019-01-26T02:39:00.887Z,101411.76
2019-01-26T03:03:07.997Z,101367.98
2019-01-26T03:22:12.251Z,101358.25
2019-01-26T03:24:51.663Z,101356.33
2019-01-26T03:27:36.149Z,101352.55
2019-01-26T03:33:50.332Z,101347.44
2019-01-26T03:46:19.073Z,101341.20
2019-01-26T03:49:11.882Z,101343.05
2019-01-26T04:01:27.899Z,101316.23
2019-01-26T04:04:15.668Z,101310.78
2019-01-26T04:57:52.754Z,101223.66
2019-01-26T05:00:27.263Z,101214.42
2019-01-26T05:02:59.388Z,101216.05
2019-01-26T05:05:31.522Z,101203.33
2019-01-26T05:08:00.966Z,101210.13
2019-01-26T05:10:33.891Z,101200.31
2019-01-26T05:13:06.201Z,101194.31
2019-01-26T05:15:37.430Z,101198.16
2019-01-26T05:18:11.662Z,101192.23
2019-01-26T05:20:42.785Z,101195.22
2019-01-26T05:23:13.153Z,101192.51
2019-01-26T05:25:42.944Z,101191.98
2019-01-26T05:28:14.523Z,101183.56
2019-01-26T05:30:45.439Z,101176.55
2019-01-26T05:33:17.630Z,101168.63
2019-01-26T05:35:47.806Z,101165.08
2019-01-26T05:38:18.796Z,101166.97
2019-01-26T05:40:49.793Z,101160.44
2019-01-26T05:43:20.223Z,101155.80
2019-01-26T05:45:56.397Z,101152.52
2019-01-26T05:48:28.221Z,101156.06
2019-01-26T05:50:58.899Z,101146.26
2019-01-26T05:53:28.959Z,101133.51
2019-01-26T05:56:01.160Z,101130.79
2019-01-26T05:58:33.057Z,101131.36
2019-01-26T06:01:04.331Z,101118.07
2019-01-26T06:03:37.633Z,101111.81
2019-01-26T06:06:08.181Z,101109.89
2019-01-26T06:08:40.235Z,101109.89
2019-01-26T06:11:15.867Z,101098.99
2019-01-26T06:13:46.733Z,101092.47
2019-01-26T06:16:18.880Z,101100.38
2019-01-26T06:18:52.635Z,101095.52
2019-01-26T06:21:25.648Z,101090.64
2019-01-26T06:23:59.492Z,101085.24
2019-01-26T06:26:36.213Z,101087.13
2019-01-26T06:29:09.114Z,101077.09
2019-01-26T06:31:40.688Z,101071.10
2019-01-26T06:34:12.530Z,101073.55
2019-01-26T06:36:47.185Z,101070.03
2019-01-26T06:39:18.429Z,101057.55
2019-01-26T06:41:48.426Z,101066.78
2019-01-26T06:44:19.331Z,101061.36
2019-01-26T06:46:49.099Z,101065.17
2019-01-26T06:49:18.250Z,101055.36
2019-01-26T06:51:59.523Z,101058.08
2019-01-26T06:54:29.510Z,101046.38
2019-01-26T06:57:01.456Z,101048.57
2019-01-26T06:59:31.837Z,101037.70
2019-01-26T07:02:03.037Z,101037.44
2019-01-26T07:04:43.954Z,101026.84
2019-01-26T07:07:20.303Z,101039.59
2019-01-26T07:09:52.260Z,101032.01
2019-01-26T07:12:22.368Z,101031.45
2019-01-26T07:14:53.682Z,101024.42
2019-01-26T07:17:23.804Z,101023.86
2019-01-26T07:19:55.946Z,101015.44
2019-01-26T07:22:25.970Z,101011.36
2019-01-26T07:24:59.929Z,101008.12
2019-01-26T07:27:31.670Z,100998.86
2019-01-26T07:30:04.033Z,100995.84
2019-01-26T07:32:36.214Z,100996.11
2019-01-26T07:35:07.688Z,100991.19
2019-01-26T07:37:37.078Z,100990.39
2019-01-26T07:40:12.674Z,100986.31
2019-01-26T07:42:44.054Z,100978.19
2019-01-26T07:45:18.453Z,100961.89
2019-01-26T07:47:51.398Z,100961.63
2019-01-26T07:50:26.803Z,100962.98
2019-01-26T07:52:56.866Z,100965.70
2019-01-26T07:55:28.818Z,100960.80
2019-01-26T08:00:34.142Z,100943.73
2019-01-26T08:03:06.113Z,100936.14
2019-01-26T08:05:39.548Z,100935.30
2019-01-26T08:08:11.066Z,100936.42
2019-01-26T08:10:47.969Z,100925.84
2019-01-26T08:13:21.592Z,100920.94
2019-01-26T08:15:54.570Z,100912.77
2019-01-26T08:18:29.721Z,100914.42
2019-01-26T08:21:12.258Z,100908.98
2019-01-26T08:23:45.362Z,100903.02
2019-01-26T08:26:18.434Z,100897.85
2019-01-26T08:28:54.661Z,100896.49
2019-01-26T08:31:28.501Z,100890.50
2019-01-26T08:34:06.615Z,100881.29
2019-01-26T08:36:37.565Z,100874.73
2019-01-26T08:39:10.820Z,100866.59
2019-01-26T08:41:42.231Z,100861.70
2019-01-26T08:44:14.229Z,100855.77
2019-01-26T08:46:45.874Z,100849.51
2019-01-26T08:49:24.279Z,100831.09
2019-01-26T08:51:58.893Z,100837.88
2019-01-26T08:54:30.374Z,100837.88
2019-01-26T08:57:03.996Z,100829.45
2019-01-26T08:59:35.719Z,100821.85
2019-01-26T09:03:17.151Z,100816.97
2019-01-26T09:06:11.433Z,100812.63
2019-01-26T09:08:46.314Z,100811.25
2019-01-26T09:11:18.631Z,100790.35
2019-01-26T09:13:49.908Z,100790.63
2019-01-26T09:16:20.478Z,100783.55
2019-01-26T09:18:51.154Z,100778.65
2019-01-26T09:21:24.623Z,100769.69
2019-01-26T09:23:54.346Z,100772.95
2019-01-26T09:26:29.386Z,100765.06
2019-01-26T09:28:59.489Z,100755.27
2019-01-26T09:31:35.049Z,100754.75
2019-01-26T09:34:04.343Z,100744.67
2019-01-26T09:36:37.753Z,100737.89
2019-01-26T09:39:12.960Z,100739.77
2019-01-26T09:41:55.883Z,100726.44
2019-01-26T09:44:28.559Z,100724.02
2019-01-26T09:46:59.378Z,100723.73
2019-01-26T09:49:34.446Z,100710.68
2019-01-26T09:52:07.651Z,100703.88
2019-01-26T09:54:40.263Z,100703.60
2019-01-26T09:57:11.545Z,100699.50
2019-01-26T09:59:46.202Z,100694.34
2019-01-26T10:02:15.713Z,100684.81
2019-01-26T10:04:49.470Z,100677.77
2019-01-26T10:07:22.850Z,100664.16
2019-01-26T10:09:54.550Z,100651.65
2019-01-26T10:12:33.903Z,100655.16
2019-01-26T10:15:04.474Z,100654.60
2019-01-26T10:20:17.094Z,100635.00
2019-01-26T10:22:52.832Z,100630.89
2019-01-26T10:25:23.868Z,100627.89
2019-01-26T10:30:34.829Z,100619.45
2019-01-26T10:33:05.822Z,100611.54
2019-01-26T10:36:47.087Z,100605.56
2019-01-26T10:39:26.525Z,100599.26
2019-01-26T10:42:10.732Z,100595.40
2019-01-26T10:44:42.404Z,100588.84
2019-01-26T10:47:16.776Z,100574.11
2019-01-26T10:49:52.593Z,100571.64
2019-01-26T10:52:27.417Z,100569.41
2019-01-26T10:55:11.215Z,100553.61
2019-01-26T10:57:42.137Z,100548.70
2019-01-26T11:00:15.996Z,100542.43
2019-01-26T11:02:48.398Z,100535.87
2019-01-26T11:05:19.469Z,100540.25
2019-01-26T11:08:04.648Z,100531.02
2019-01-26T11:13:21.875Z,100497.55
2019-01-26T11:16:07.657Z,100490.17
2019-01-26T11:18:37.870Z,100480.11
2019-01-26T11:21:09.391Z,100478.45
2019-01-26T11:23:44.030Z,100462.94
2019-01-26T11:26:19.526Z,100458.81
2019-01-26T11:28:51.916Z,100451.45
2019-01-26T11:31:26.689Z,100441.92
2019-01-26T11:34:10.305Z,100434.84
2019-01-26T11:36:44.147Z,100423.41
2019-01-26T11:39:19.877Z,100409.02
2019-01-26T11:41:53.824Z,100398.91
2019-01-26T11:44:30.019Z,100391.56
2019-01-26T11:47:10.268Z,100393.70
2019-01-26T11:49:54.192Z,100394.00
2019-01-26T11:55:13.007Z,100362.99
2019-01-26T11:57:49.266Z,100338.78
2019-01-26T12:02:41.648Z,100327.94
2019-01-26T12:05:19.644Z,100311.64
2019-01-26T12:07:52.322Z,100302.70
2019-01-26T12:10:32.287Z,100290.20
2019-01-26T12:13:07.395Z,100280.68
2019-01-26T12:15:38.547Z,100266.79
2019-01-26T12:18:10.187Z,100260.27
2019-01-26T12:20:46.009Z,100243.94
2019-01-26T12:23:20.547Z,100244.45
2019-01-26T12:25:56.704Z,100232.75
2019-01-26T12:28:31.823Z,100222.69
2019-01-26T12:31:03.245Z,100204.41
2019-01-26T12:33:35.393Z,100207.41
2019-01-26T12:36:05.305Z,100189.20
2019-01-26T12:38:43.113Z,100169.09
2019-01-26T12:41:16.170Z,100163.89
2019-01-26T12:43:49.170Z,100146.20
2019-01-26T12:46:18.917Z,100142.94
2019-01-26T12:48:52.773Z,100126.30
2019-01-26T12:51:35.103Z,100115.94
2019-01-26T12:54:07.366Z,100108.02
2019-01-26T12:56:42.548Z,100100.96
2019-01-26T12:59:13.877Z,100088.17
2019-01-26T13:01:47.103Z,100082.43
2019-01-26T13:04:17.254Z,100076.69
2019-01-26T13:06:55.873Z,100070.70
2019-01-26T13:09:33.794Z,100064.37
2019-01-26T13:12:10.262Z,100053.77
2019-01-26T13:14:47.892Z,100039.03
2019-01-26T13:17:19.662Z,100029.51
2019-01-26T13:19:55.283Z,100011.81
2019-01-26T13:37:46.835Z,99930.45
2019-01-26T13:40:20.904Z,99917.91
2019-01-26T13:42:53.141Z,99905.09
2019-01-26T13:45:22.568Z,99912.09
2019-01-26T13:47:57.857Z,99894.14
2019-01-26T13:50:32.457Z,99894.44
2019-01-26T13:53:03.908Z,99879.50
2019-01-26T13:55:35.336Z,99855.89
2019-01-26T13:58:14.938Z,99836.03
2019-01-26T14:00:49.378Z,99826.50
2019-01-26T14:03:25.012Z,99816.70
2019-01-26T14:05:57.567Z,99797.38
2019-01-26T14:08:45.183Z,99794.36
2019-01-26T14:11:15.070Z,99787.86
2019-01-26T14:13:51.232Z,99774.53
2019-01-26T14:16:34.255Z,99779.49
2019-01-26T14:21:54.598Z,99763.16
2019-01-26T14:24:27.267Z,99744.59
2019-01-26T14:27:10.742Z,99738.06
2019-01-26T14:33:41.385Z,99726.50
2019-01-26T14:36:10.936Z,99736.88
2019-01-26T14:38:45.394Z,99710.80
2019-01-26T14:41:15.274Z,99698.79
2019-01-26T14:43:49.033Z,99695.02
2019-01-26T14:46:25.029Z,99672.55
2019-01-26T14:49:05.670Z,99659.56
2019-01-26T14:51:42.266Z,99650.89
2019-01-26T14:54:21.042Z,99630.25
2019-01-26T14:56:51.966Z,99623.69
2019-01-26T14:59:25.152Z,99614.44
2019-01-26T15:02:00.425Z,99615.14
2019-01-26T15:04:35.551Z,99624.28
2019-01-26T15:07:10.226Z,99654.83
2019-01-26T15:09:42.998Z,99636.98
2019-01-26T15:12:14.081Z,99640.63
2019-01-26T15:14:46.603Z,99632.97
2019-01-26T15:17:25.027Z,99626.41
2019-01-26T15:20:05.451Z,99615.02
2019-01-26T15:22:29.910Z,99621.44
2019-01-26T15:25:02.016Z,99623.73
2019-01-26T15:27:37.319Z,99624.78
2019-01-26T15:30:18.166Z,99619.70
2019-01-26T15:32:56.295Z,99625.52
2019-01-26T15:35:26.180Z,99613.55
2019-01-26T15:37:59.606Z,99602.43
2019-01-26T15:40:28.812Z,99598.31
2019-01-26T15:43:01.779Z,99587.13
2019-01-26T15:45:36.574Z,99583.70
2019-01-26T15:48:14.642Z,99582.65
2019-01-26T15:51:01.287Z,99564.78
2019-01-26T15:53:32.064Z,99573.48
2019-01-26T15:56:03.702Z,99566.45
2019-01-26T15:58:35.125Z,99555.56
2019-01-26T16:01:09.410Z,99544.69
2019-01-26T16:03:44.378Z,99534.05
2019-01-26T16:06:23.330Z,99521.26
2019-01-26T16:11:37.348Z,99503.39
2019-01-26T16:14:10.072Z,99497.99
2019-01-26T16:19:36.636Z,99480.08
2019-01-26T16:22:07.614Z,99460.46
2019-01-26T16:24:38.919Z,99472.70
2019-01-26T16:27:12.572Z,99472.97
2019-01-26T16:29:50.671Z,99458.55
2019-01-26T16:32:21.276Z,99462.45
2019-01-26T16:34:52.098Z,99466.03
2019-01-26T16:37:23.817Z,99456.62
2019-01-26T16:42:39.051Z,99441.22
2019-01-26T16:45:15.387Z,99424.13
2019-01-26T16:47:54.345Z,99420.05
2019-01-26T16:56:22.222Z,99402.42
2019-01-26T16:58:57.330Z,99397.25
2019-01-26T17:01:42.157Z,99387.77
2019-01-26T17:04:17.238Z,99384.37
2019-01-26T17:06:57.603Z,99363.61
2019-01-26T17:09:28.569Z,99367.99
2019-01-26T17:11:58.439Z,99357.86
2019-01-26T17:14:28.770Z,99364.30
2019-01-26T17:17:02.557Z,99363.30
2019-01-26T17:19:37.040Z,99352.23
2019-01-26T17:22:09.653Z,99332.97
2019-01-26T17:24:39.178Z,99324.32
2019-01-26T17:27:10.506Z,99324.87
2019-01-26T17:29:43.586Z,99305.11
2019-01-26T17:32:16.402Z,99301.03
2019-01-26T17:34:47.742Z,99294.47
2019-01-26T17:37:24.165Z,99290.89
2019-01-26T17:39:55.560Z,99274.41
2019-01-26T17:42:31.204Z,99269.52
2019-01-26T17:45:01.797Z,99260.27
2019-01-26T17:47:36.671Z,99265.94
2019-01-26T17:50:09.203Z,99263.40
2019-01-26T17:52:42.739Z,99257.34
2019-01-26T17:55:13.622Z,99257.83
2019-01-26T17:57:48.995Z,99245.69
2019-01-26T18:00:26.678Z,99248.27
2019-01-26T18:03:02.475Z,99243.09
2019-01-26T18:05:35.201Z,99224.67
2019-01-26T18:08:08.040Z,99220.59
2019-01-26T18:10:41.253Z,99222.27
2019-01-26T18:13:14.618Z,99207.38
2019-01-26T18:15:47.686Z,99208.01
2019-01-26T18:18:19.397Z,99198.27
2019-01-26T18:20:52.719Z,99187.08
2019-01-26T18:23:30.183Z,99194.69
2019-01-26T18:26:01.294Z,99200.48
2019-01-26T18:28:33.675Z,99198.48
2019-01-26T18:31:12.135Z,99176.30
2019-01-26T18:33:43.158Z,99178.98
2019-01-26T18:36:13.997Z,99176.95
2019-01-26T18:38:45.102Z,99165.30
2019-01-26T18:41:18.385Z,99155.79
2019-01-26T18:43:50.143Z,99142.80
2019-01-26T18:46:21.095Z,99137.95
2019-01-26T18:48:51.694Z,99138.73
2019-01-26T18:51:25.805Z,99123.78
2019-01-26T18:53:55.722Z,99117.00
2019-01-26T18:56:27.796Z,99099.11
2019-01-26T18:59:00.655Z,99115.72
2019-01-26T19:01:35.748Z,99114.05
2019-01-26T19:04:17.745Z,99103.23
2019-01-26T19:06:52.059Z,99096.21
2019-01-26T19:09:22.223Z,99094.54
2019-01-26T19:12:08.344Z,99088.30
2019-01-26T19:14:47.581Z,99079.24
2019-01-26T19:17:21.736Z,99071.23
2019-01-26T19:19:52.734Z,99054.98
2019-01-26T19:22:26.365Z,99060.80
2019-01-26T19:24:59.127Z,99051.87
2019-01-26T19:27:33.055Z,99035.31
2019-01-26T19:30:06.573Z,99039.33
2019-01-26T19:32:35.664Z,99024.56
2019-01-26T19:35:13.517Z,99025.30
2019-01-26T19:37:47.728Z,99018.13
2019-01-26T19:40:20.699Z,99019.17
2019-01-26T19:42:56.103Z,99009.11
2019-01-26T19:45:27.716Z,99006.40
2019-01-26T19:48:02.709Z,99002.37
2019-01-26T19:50:44.361Z,98999.66
2019-01-26T19:53:25.111Z,98979.73
2019-01-26T19:56:00.025Z,98979.14
2019-01-26T19:58:33.837Z,98965.02
2019-01-26T20:01:07.736Z,98967.23
2019-01-26T20:03:38.979Z,98957.82
2019-01-26T20:06:10.896Z,98957.99
2019-01-26T20:08:41.343Z,98952.41
2019-01-26T20:11:14.980Z,98954.48
2019-01-26T20:13:51.736Z,98959.77
2019-01-26T20:16:27.515Z,98954.59
2019-01-26T20:19:04.902Z,98951.23
2019-01-26T20:21:40.650Z,98944.38
2019-01-26T20:24:16.445Z,98937.10
2019-01-26T20:26:50.122Z,98943.08
2019-01-26T20:29:28.616Z,98923.52
2019-01-26T20:31:59.020Z,98917.76
2019-01-26T20:34:32.845Z,98917.53
2019-01-26T20:37:04.524Z,98914.81
2019-01-26T20:39:51.421Z,98915.27
2019-01-26T20:42:23.591Z,98908.97
2019-01-26T20:44:53.981Z,98905.14
2019-01-26T20:47:28.451Z,98914.88
2019-01-26T20:49:59.191Z,98904.83
2019-01-26T20:52:30.573Z,98905.38
2019-01-26T20:55:01.846Z,98899.29
2019-01-26T20:57:33.107Z,98901.06
2019-01-26T21:00:09.988Z,98882.59
2019-01-26T21:02:41.685Z,98883.70
2019-01-26T21:05:17.061Z,98866.20
2019-01-26T21:07:50.505Z,98860.05
2019-01-26T21:10:25.666Z,98850.44
2019-01-26T21:12:59.221Z,98851.30
2019-01-26T21:15:30.999Z,98851.37
2019-01-26T21:18:03.354Z,98865.20
2019-01-26T21:20:35.826Z,98850.76
2019-01-26T21:23:09.238Z,98847.08
2019-01-26T21:25:40.711Z,98850.22
2019-01-26T21:28:12.166Z,98853.42
2019-01-26T21:30:52.041Z,98848.21
2019-01-26T21:33:26.912Z,98850.70
2019-01-26T21:36:00.596Z,98850.37
2019-01-26T21:38:33.763Z,98848.92
2019-01-26T21:41:05.910Z,98838.80
2019-01-26T21:43:38.838Z,98839.52
2019-01-26T21:46:12.814Z,98833.76
2019-01-26T21:48:50.864Z,98832.95
2019-01-26T21:51:29.210Z,98832.95
2019-01-26T21:54:04.474Z,98829.13
2019-01-26T21:56:38.918Z,98812.28
2019-01-26T22:01:51.315Z,98807.14
2019-01-26T22:04:21.953Z,98803.97
2019-01-26T22:06:53.039Z,98801.00
2019-01-26T22:09:26.743Z,98803.97
2019-01-26T22:12:00.672Z,98795.34
2019-01-26T22:14:33.730Z,98792.14
2019-01-26T22:17:07.726Z,98800.84
2019-01-26T22:19:46.554Z,98802.75
2019-01-26T22:22:19.389Z,98805.95
2019-01-26T22:24:49.790Z,98803.55
2019-01-26T22:27:28.204Z,98804.03
2019-01-26T22:30:05.211Z,98806.98
2019-01-26T22:32:37.073Z,98798.05
2019-01-26T22:35:11.322Z,98803.72
2019-01-26T22:37:41.706Z,98803.48
2019-01-26T22:40:16.957Z,98798.61
2019-01-26T22:42:47.158Z,98788.87
2019-01-26T22:45:21.175Z,98796.77
2019-01-26T22:47:52.763Z,98788.29
2019-01-26T22:50:23.862Z,98788.29
2019-01-26T22:52:56.577Z,98786.29
2019-01-26T22:55:27.690Z,98777.34
2019-01-26T22:57:58.021Z,98776.69
2019-01-26T23:00:39.421Z,98776.82
2019-01-26T23:03:10.785Z,98771.39
2019-01-26T23:06:02.518Z,98770.55
2019-01-26T23:08:35.159Z,98780.05
2019-01-26T23:11:24.025Z,98772.71
2019-01-26T23:14:11.297Z,98767.61
2019-01-26T23:19:58.182Z,98772.16
2019-01-26T23:22:53.594Z,98769.60
2019-01-26T23:25:36.597Z,98766.89
2019-01-26T23:28:17.529Z,98762.27
2019-01-26T23:31:53.257Z,98758.74
2019-01-26T23:34:24.094Z,98760.65
2019-01-26T23:36:55.498Z,98751.47
2019-01-26T23:39:30.559Z,98746.52
2019-01-26T23:42:00.908Z,98758.97
2019-01-26T23:44:35.738Z,98785.80
2019-01-26T23:47:08.724Z,98791.40
2019-01-26T23:49:39.790Z,98785.12
2019-01-26T23:52:20.322Z,98780.06
2019-01-26T23:54:59.188Z,98774.09
2019-01-26T23:57:31.195Z,98775.26
